sensor_id;sensor_type;location;lat;lon;timestamp;temperature;humidity
11836;DHT22;5977;51.972;7.640;2023-05-02T00:00:33;18.10;68.40
11836;DHT22;5977;51.972;7.640;2023-05-02T00:03:03;18.00;68.40
11836;DHT22;5977;51.972;7.640;2023-05-02T00:05:33;18.00;68.40
11836;DHT22;5977;51.972;7.640;2023-05-02T00:08:01;18.00;68.40
11836;DHT22;5977;51.972;7.640;2023-05-02T00:10:29;18.00;68.40
11836;DHT22;5977;51.972;7.640;2023-05-02T00:12:56;18.00;68.40
11836;DHT22;5977;51.972;7.640;2023-05-02T00:15:24;18.00;68.50
11836;DHT22;5977;51.972;7.640;2023-05-02T00:17:53;18.00;68.60
11836;DHT22;5977;51.972;7.640;2023-05-02T00:20:21;18.00;68.60
11836;DHT22;5977;51.972;7.640;2023-05-02T00:22:50;17.90;68.70
11836;DHT22;5977;51.972;7.640;2023-05-02T00:25:18;18.00;68.60
11836;DHT22;5977;51.972;7.640;2023-05-02T00:27:46;17.90;68.60
11836;DHT22;5977;51.972;7.640;2023-05-02T00:30:17;17.90;68.60
11836;DHT22;5977;51.972;7.640;2023-05-02T00:32:46;17.90;68.70
11836;DHT22;5977;51.972;7.640;2023-05-02T00:35:14;17.90;68.80
11836;DHT22;5977;51.972;7.640;2023-05-02T00:37:42;17.80;68.80
11836;DHT22;5977;51.972;7.640;2023-05-02T00:40:12;17.80;68.80
11836;DHT22;5977;51.972;7.640;2023-05-02T00:42:40;17.80;68.90
11836;DHT22;5977;51.972;7.640;2023-05-02T00:45:08;17.80;68.90
11836;DHT22;5977;51.972;7.640;2023-05-02T00:47:37;17.80;68.90
11836;DHT22;5977;51.972;7.640;2023-05-02T00:50:06;17.80;69.00
11836;DHT22;5977;51.972;7.640;2023-05-02T00:52:34;17.80;68.90
11836;DHT22;5977;51.972;7.640;2023-05-02T00:55:04;17.80;68.90
11836;DHT22;5977;51.972;7.640;2023-05-02T00:57:33;17.90;68.80
11836;DHT22;5977;51.972;7.640;2023-05-02T01:00:01;17.90;68.80
11836;DHT22;5977;51.972;7.640;2023-05-02T01:02:35;17.90;68.80
11836;DHT22;5977;51.972;7.640;2023-05-02T01:05:10;17.80;68.90
11836;DHT22;5977;51.972;7.640;2023-05-02T01:07:52;17.80;69.00
11836;DHT22;5977;51.972;7.640;2023-05-02T01:10:29;17.80;69.00
11836;DHT22;5977;51.972;7.640;2023-05-02T01:13:04;17.80;69.20
11836;DHT22;5977;51.972;7.640;2023-05-02T01:15:37;17.80;69.20
11836;DHT22;5977;51.972;7.640;2023-05-02T01:18:07;17.80;69.80
11836;DHT22;5977;51.972;7.640;2023-05-02T01:20:38;17.70;69.00
11836;DHT22;5977;51.972;7.640;2023-05-02T01:23:15;17.80;69.10
11836;DHT22;5977;51.972;7.640;2023-05-02T01:25:55;17.80;69.10
11836;DHT22;5977;51.972;7.640;2023-05-02T01:28:42;17.80;69.10
11836;DHT22;5977;51.972;7.640;2023-05-02T01:31:11;17.80;69.10
11836;DHT22;5977;51.972;7.640;2023-05-02T01:33:39;17.70;69.10
11836;DHT22;5977;51.972;7.640;2023-05-02T01:36:08;17.70;69.10
11836;DHT22;5977;51.972;7.640;2023-05-02T01:38:38;17.70;69.30
11836;DHT22;5977;51.972;7.640;2023-05-02T01:41:07;17.70;69.30
11836;DHT22;5977;51.972;7.640;2023-05-02T01:43:36;17.70;69.30
11836;DHT22;5977;51.972;7.640;2023-05-02T01:46:08;17.70;69.30
11836;DHT22;5977;51.972;7.640;2023-05-02T01:48:37;17.70;69.30
11836;DHT22;5977;51.972;7.640;2023-05-02T01:51:07;17.80;69.30
11836;DHT22;5977;51.972;7.640;2023-05-02T01:53:37;17.70;69.10
11836;DHT22;5977;51.972;7.640;2023-05-02T01:56:06;17.70;69.30
11836;DHT22;5977;51.972;7.640;2023-05-02T01:58:35;17.80;69.20
11836;DHT22;5977;51.972;7.640;2023-05-02T02:01:03;17.80;69.10
11836;DHT22;5977;51.972;7.640;2023-05-02T02:03:34;17.80;69.20
11836;DHT22;5977;51.972;7.640;2023-05-02T02:06:02;17.80;69.20
11836;DHT22;5977;51.972;7.640;2023-05-02T02:08:30;17.70;69.10
11836;DHT22;5977;51.972;7.640;2023-05-02T02:10:59;17.80;69.10
11836;DHT22;5977;51.972;7.640;2023-05-02T02:13:36;17.70;69.10
11836;DHT22;5977;51.972;7.640;2023-05-02T02:16:10;17.80;69.20
11836;DHT22;5977;51.972;7.640;2023-05-02T02:18:42;17.80;69.00
11836;DHT22;5977;51.972;7.640;2023-05-02T02:21:15;17.80;69.20
11836;DHT22;5977;51.972;7.640;2023-05-02T02:23:46;17.80;69.00
11836;DHT22;5977;51.972;7.640;2023-05-02T02:26:17;17.80;68.90
11836;DHT22;5977;51.972;7.640;2023-05-02T02:28:46;17.80;68.90
11836;DHT22;5977;51.972;7.640;2023-05-02T02:31:14;17.80;69.10
11836;DHT22;5977;51.972;7.640;2023-05-02T02:33:43;17.80;69.10
11836;DHT22;5977;51.972;7.640;2023-05-02T02:36:14;17.70;69.20
11836;DHT22;5977;51.972;7.640;2023-05-02T02:38:49;17.80;69.10
11836;DHT22;5977;51.972;7.640;2023-05-02T02:41:21;17.80;69.00
11836;DHT22;5977;51.972;7.640;2023-05-02T02:43:57;17.80;69.20
11836;DHT22;5977;51.972;7.640;2023-05-02T02:46:33;17.70;69.00
11836;DHT22;5977;51.972;7.640;2023-05-02T02:49:17;17.80;69.10
11836;DHT22;5977;51.972;7.640;2023-05-02T02:51:55;17.80;69.20
11836;DHT22;5977;51.972;7.640;2023-05-02T02:54:30;17.70;69.10
11836;DHT22;5977;51.972;7.640;2023-05-02T02:57:03;17.70;69.30
11836;DHT22;5977;51.972;7.640;2023-05-02T02:59:35;17.70;69.20
11836;DHT22;5977;51.972;7.640;2023-05-02T03:02:08;17.70;69.20
11836;DHT22;5977;51.972;7.640;2023-05-02T03:04:40;17.70;69.20
11836;DHT22;5977;51.972;7.640;2023-05-02T03:07:08;17.70;69.30
11836;DHT22;5977;51.972;7.640;2023-05-02T03:09:40;17.70;69.20
11836;DHT22;5977;51.972;7.640;2023-05-02T03:12:11;17.70;69.10
11836;DHT22;5977;51.972;7.640;2023-05-02T03:14:39;17.80;69.20
11836;DHT22;5977;51.972;7.640;2023-05-02T03:17:07;17.80;69.20
11836;DHT22;5977;51.972;7.640;2023-05-02T03:19:37;17.80;69.30
11836;DHT22;5977;51.972;7.640;2023-05-02T03:22:05;17.70;69.30
11836;DHT22;5977;51.972;7.640;2023-05-02T03:24:35;17.80;69.30
11836;DHT22;5977;51.972;7.640;2023-05-02T03:27:03;17.70;69.30
11836;DHT22;5977;51.972;7.640;2023-05-02T03:29:37;17.80;69.20
11836;DHT22;5977;51.972;7.640;2023-05-02T03:32:06;17.80;69.20
11836;DHT22;5977;51.972;7.640;2023-05-02T03:34:36;17.80;69.20
11836;DHT22;5977;51.972;7.640;2023-05-02T03:37:05;17.80;69.20
11836;DHT22;5977;51.972;7.640;2023-05-02T03:39:33;17.80;69.20
11836;DHT22;5977;51.972;7.640;2023-05-02T03:42:01;17.70;69.30
11836;DHT22;5977;51.972;7.640;2023-05-02T03:44:29;17.70;69.40
11836;DHT22;5977;51.972;7.640;2023-05-02T03:46:56;17.70;69.40
11836;DHT22;5977;51.972;7.640;2023-05-02T03:49:25;17.80;69.30
11836;DHT22;5977;51.972;7.640;2023-05-02T03:51:53;17.70;69.60
11836;DHT22;5977;51.972;7.640;2023-05-02T03:54:31;17.70;69.60
11836;DHT22;5977;51.972;7.640;2023-05-02T03:56:59;17.70;69.50
11836;DHT22;5977;51.972;7.640;2023-05-02T03:59:31;17.70;69.60
11836;DHT22;5977;51.972;7.640;2023-05-02T04:02:02;17.70;69.60
11836;DHT22;5977;51.972;7.640;2023-05-02T04:04:39;17.80;69.60
11836;DHT22;5977;51.972;7.640;2023-05-02T04:07:09;17.80;69.20
11836;DHT22;5977;51.972;7.640;2023-05-02T04:09:43;17.80;69.20
11836;DHT22;5977;51.972;7.640;2023-05-02T04:12:14;17.90;69.20
11836;DHT22;5977;51.972;7.640;2023-05-02T04:14:45;17.90;69.30
11836;DHT22;5977;51.972;7.640;2023-05-02T04:17:14;17.90;69.30
11836;DHT22;5977;51.972;7.640;2023-05-02T04:19:47;17.80;69.40
11836;DHT22;5977;51.972;7.640;2023-05-02T04:22:16;17.90;69.40
11836;DHT22;5977;51.972;7.640;2023-05-02T04:24:51;17.80;69.50
11836;DHT22;5977;51.972;7.640;2023-05-02T04:27:20;17.80;69.60
11836;DHT22;5977;51.972;7.640;2023-05-02T04:29:48;17.90;69.50
11836;DHT22;5977;51.972;7.640;2023-05-02T04:32:17;17.80;69.60
11836;DHT22;5977;51.972;7.640;2023-05-02T04:34:46;17.80;69.70
11836;DHT22;5977;51.972;7.640;2023-05-02T04:37:15;17.90;69.60
11836;DHT22;5977;51.972;7.640;2023-05-02T04:39:45;17.80;69.60
11836;DHT22;5977;51.972;7.640;2023-05-02T04:42:18;17.80;69.70
11836;DHT22;5977;51.972;7.640;2023-05-02T04:44:58;17.80;69.70
11836;DHT22;5977;51.972;7.640;2023-05-02T04:47:26;17.70;69.80
11836;DHT22;5977;51.972;7.640;2023-05-02T04:49:54;17.70;70.00
11836;DHT22;5977;51.972;7.640;2023-05-02T04:52:22;17.70;69.80
11836;DHT22;5977;51.972;7.640;2023-05-02T04:54:50;17.70;69.80
11836;DHT22;5977;51.972;7.640;2023-05-02T04:57:19;17.60;69.60
11836;DHT22;5977;51.972;7.640;2023-05-02T04:59:53;17.70;69.80
11836;DHT22;5977;51.972;7.640;2023-05-02T05:02:21;17.60;69.80
11836;DHT22;5977;51.972;7.640;2023-05-02T05:04:49;17.70;69.80
11836;DHT22;5977;51.972;7.640;2023-05-02T05:07:18;17.70;69.60
11836;DHT22;5977;51.972;7.640;2023-05-02T05:09:48;17.70;69.60
11836;DHT22;5977;51.972;7.640;2023-05-02T05:12:21;17.70;69.70
11836;DHT22;5977;51.972;7.640;2023-05-02T05:14:49;17.80;69.40
11836;DHT22;5977;51.972;7.640;2023-05-02T05:17:19;17.80;69.80
11836;DHT22;5977;51.972;7.640;2023-05-02T05:19:47;17.80;69.00
11836;DHT22;5977;51.972;7.640;2023-05-02T05:22:15;17.80;68.90
11836;DHT22;5977;51.972;7.640;2023-05-02T05:24:50;17.80;69.00
11836;DHT22;5977;51.972;7.640;2023-05-02T05:27:20;17.80;68.90
11836;DHT22;5977;51.972;7.640;2023-05-02T05:29:48;17.80;68.90
11836;DHT22;5977;51.972;7.640;2023-05-02T05:32:16;17.70;69.00
11836;DHT22;5977;51.972;7.640;2023-05-02T05:34:44;17.70;68.90
11836;DHT22;5977;51.972;7.640;2023-05-02T05:37:12;17.70;68.90
11836;DHT22;5977;51.972;7.640;2023-05-02T05:39:40;17.70;68.90
11836;DHT22;5977;51.972;7.640;2023-05-02T05:42:09;17.70;68.90
11836;DHT22;5977;51.972;7.640;2023-05-02T05:44:40;17.70;68.90
11836;DHT22;5977;51.972;7.640;2023-05-02T05:47:08;17.80;68.90
11836;DHT22;5977;51.972;7.640;2023-05-02T05:49:37;17.80;68.70
11836;DHT22;5977;51.972;7.640;2023-05-02T05:52:08;17.80;68.60
11836;DHT22;5977;51.972;7.640;2023-05-02T05:54:35;17.80;68.40
11836;DHT22;5977;51.972;7.640;2023-05-02T05:57:03;17.80;68.30
11836;DHT22;5977;51.972;7.640;2023-05-02T05:59:34;17.70;68.30
11836;DHT22;5977;51.972;7.640;2023-05-02T06:02:04;17.70;68.50
11836;DHT22;5977;51.972;7.640;2023-05-02T06:04:32;17.60;68.50
11836;DHT22;5977;51.972;7.640;2023-05-02T06:07:00;17.30;69.30
11836;DHT22;5977;51.972;7.640;2023-05-02T06:09:28;17.10;70.10
11836;DHT22;5977;51.972;7.640;2023-05-02T06:11:56;16.70;70.50
11836;DHT22;5977;51.972;7.640;2023-05-02T06:14:24;16.60;71.00
11836;DHT22;5977;51.972;7.640;2023-05-02T06:16:52;16.10;70.70
11836;DHT22;5977;51.972;7.640;2023-05-02T06:19:21;16.20;71.90
11836;DHT22;5977;51.972;7.640;2023-05-02T06:21:49;16.20;70.70
11836;DHT22;5977;51.972;7.640;2023-05-02T06:24:17;16.30;71.20
11836;DHT22;5977;51.972;7.640;2023-05-02T06:26:44;16.20;69.60
11836;DHT22;5977;51.972;7.640;2023-05-02T06:29:12;15.90;70.00
11836;DHT22;5977;51.972;7.640;2023-05-02T06:31:40;15.80;70.00
11836;DHT22;5977;51.972;7.640;2023-05-02T06:34:08;15.70;71.20
11836;DHT22;5977;51.972;7.640;2023-05-02T06:36:37;15.60;70.30
11836;DHT22;5977;51.972;7.640;2023-05-02T06:39:05;15.40;71.30
11836;DHT22;5977;51.972;7.640;2023-05-02T06:41:33;15.50;72.10
11836;DHT22;5977;51.972;7.640;2023-05-02T06:44:00;15.90;72.00
11836;DHT22;5977;51.972;7.640;2023-05-02T06:46:28;15.50;70.20
11836;DHT22;5977;51.972;7.640;2023-05-02T06:48:57;15.60;72.40
11836;DHT22;5977;51.972;7.640;2023-05-02T06:51:25;15.60;71.10
11836;DHT22;5977;51.972;7.640;2023-05-02T06:53:54;15.80;72.20
11836;DHT22;5977;51.972;7.640;2023-05-02T06:56:22;15.90;71.60
11836;DHT22;5977;51.972;7.640;2023-05-02T06:58:51;15.90;70.50
11836;DHT22;5977;51.972;7.640;2023-05-02T07:01:19;15.70;70.20
11836;DHT22;5977;51.972;7.640;2023-05-02T07:03:46;15.80;70.10
11836;DHT22;5977;51.972;7.640;2023-05-02T07:06:14;15.80;69.00
11836;DHT22;5977;51.972;7.640;2023-05-02T07:08:42;15.70;70.20
11836;DHT22;5977;51.972;7.640;2023-05-02T07:11:11;15.40;70.30
11836;DHT22;5977;51.972;7.640;2023-05-02T07:13:39;15.50;72.10
11836;DHT22;5977;51.972;7.640;2023-05-02T07:16:07;15.70;71.10
11836;DHT22;5977;51.972;7.640;2023-05-02T07:18:35;15.80;70.30
11836;DHT22;5977;51.972;7.640;2023-05-02T07:21:03;15.90;71.20
11836;DHT22;5977;51.972;7.640;2023-05-02T07:23:31;15.80;69.50
11836;DHT22;5977;51.972;7.640;2023-05-02T07:25:59;15.80;70.10
11836;DHT22;5977;51.972;7.640;2023-05-02T07:28:29;15.60;69.20
11836;DHT22;5977;51.972;7.640;2023-05-02T07:30:57;15.70;71.20
11836;DHT22;5977;51.972;7.640;2023-05-02T07:33:25;15.90;71.70
11836;DHT22;5977;51.972;7.640;2023-05-02T07:35:54;15.90;71.50
11836;DHT22;5977;51.972;7.640;2023-05-02T07:38:22;15.90;70.90
11836;DHT22;5977;51.972;7.640;2023-05-02T07:40:50;15.90;72.00
11836;DHT22;5977;51.972;7.640;2023-05-02T07:43:18;15.90;71.70
11836;DHT22;5977;51.972;7.640;2023-05-02T07:45:47;15.70;70.80
11836;DHT22;5977;51.972;7.640;2023-05-02T07:48:15;15.80;71.90
11836;DHT22;5977;51.972;7.640;2023-05-02T07:50:43;15.50;69.50
11836;DHT22;5977;51.972;7.640;2023-05-02T07:53:11;15.40;71.80
11836;DHT22;5977;51.972;7.640;2023-05-02T07:55:38;15.40;70.60
11836;DHT22;5977;51.972;7.640;2023-05-02T07:58:06;15.50;71.30
11836;DHT22;5977;51.972;7.640;2023-05-02T08:00:34;15.60;71.50
11836;DHT22;5977;51.972;7.640;2023-05-02T08:03:03;15.70;69.40
11836;DHT22;5977;51.972;7.640;2023-05-02T08:05:32;16.10;70.30
11836;DHT22;5977;51.972;7.640;2023-05-02T08:08:00;16.10;68.10
11836;DHT22;5977;51.972;7.640;2023-05-02T08:10:28;16.10;68.80
11836;DHT22;5977;51.972;7.640;2023-05-02T08:12:56;16.20;69.40
11836;DHT22;5977;51.972;7.640;2023-05-02T08:15:24;16.40;69.40
11836;DHT22;5977;51.972;7.640;2023-05-02T08:17:51;16.40;68.00
11836;DHT22;5977;51.972;7.640;2023-05-02T08:20:21;16.10;67.20
11836;DHT22;5977;51.972;7.640;2023-05-02T08:22:49;16.20;67.70
11836;DHT22;5977;51.972;7.640;2023-05-02T08:25:17;15.70;68.70
11836;DHT22;5977;51.972;7.640;2023-05-02T08:27:44;15.70;68.90
11836;DHT22;5977;51.972;7.640;2023-05-02T08:30:12;15.90;70.60
11836;DHT22;5977;51.972;7.640;2023-05-02T08:32:40;15.90;71.10
11836;DHT22;5977;51.972;7.640;2023-05-02T08:35:09;16.00;69.60
11836;DHT22;5977;51.972;7.640;2023-05-02T08:37:38;16.00;68.30
11836;DHT22;5977;51.972;7.640;2023-05-02T08:40:11;16.20;68.00
11836;DHT22;5977;51.972;7.640;2023-05-02T08:42:41;16.10;67.50
11836;DHT22;5977;51.972;7.640;2023-05-02T08:45:12;16.30;67.30
11836;DHT22;5977;51.972;7.640;2023-05-02T08:47:42;16.50;66.70
11836;DHT22;5977;51.972;7.640;2023-05-02T08:50:11;16.90;66.10
11836;DHT22;5977;51.972;7.640;2023-05-02T08:52:40;17.50;64.90
11836;DHT22;5977;51.972;7.640;2023-05-02T08:55:11;17.50;62.00
11836;DHT22;5977;51.972;7.640;2023-05-02T08:57:40;17.60;62.70
11836;DHT22;5977;51.972;7.640;2023-05-02T09:00:11;17.30;62.30
11836;DHT22;5977;51.972;7.640;2023-05-02T09:02:47;17.20;64.50
11836;DHT22;5977;51.972;7.640;2023-05-02T09:05:19;17.00;63.70
11836;DHT22;5977;51.972;7.640;2023-05-02T09:07:51;17.00;65.40
11836;DHT22;5977;51.972;7.640;2023-05-02T09:10:20;16.90;65.00
11836;DHT22;5977;51.972;7.640;2023-05-02T09:12:48;16.70;63.20
11836;DHT22;5977;51.972;7.640;2023-05-02T09:15:16;16.70;64.40
11836;DHT22;5977;51.972;7.640;2023-05-02T09:17:47;16.90;65.50
11836;DHT22;5977;51.972;7.640;2023-05-02T09:20:16;17.10;65.10
11836;DHT22;5977;51.972;7.640;2023-05-02T09:22:47;17.10;62.70
11836;DHT22;5977;51.972;7.640;2023-05-02T09:25:18;16.90;64.70
11836;DHT22;5977;51.972;7.640;2023-05-02T09:27:51;16.80;62.60
11836;DHT22;5977;51.972;7.640;2023-05-02T09:30:21;16.80;65.50
11836;DHT22;5977;51.972;7.640;2023-05-02T09:32:50;16.90;64.20
11836;DHT22;5977;51.972;7.640;2023-05-02T09:35:20;16.90;64.10
11836;DHT22;5977;51.972;7.640;2023-05-02T09:37:51;17.20;63.90
11836;DHT22;5977;51.972;7.640;2023-05-02T09:40:21;17.40;63.50
11836;DHT22;5977;51.972;7.640;2023-05-02T09:42:50;17.30;61.80
11836;DHT22;5977;51.972;7.640;2023-05-02T09:45:21;17.40;61.40
11836;DHT22;5977;51.972;7.640;2023-05-02T09:47:50;17.20;61.00
11836;DHT22;5977;51.972;7.640;2023-05-02T09:50:37;17.30;61.40
11836;DHT22;5977;51.972;7.640;2023-05-02T09:53:05;17.50;60.50
11836;DHT22;5977;51.972;7.640;2023-05-02T09:55:35;17.50;60.60
11836;DHT22;5977;51.972;7.640;2023-05-02T09:58:03;17.70;60.10
11836;DHT22;5977;51.972;7.640;2023-05-02T10:00:39;17.70;60.90
11836;DHT22;5977;51.972;7.640;2023-05-02T10:03:08;17.50;59.30
11836;DHT22;5977;51.972;7.640;2023-05-02T10:05:36;17.30;58.00
11836;DHT22;5977;51.972;7.640;2023-05-02T10:08:06;17.30;59.20
11836;DHT22;5977;51.972;7.640;2023-05-02T10:10:37;17.30;59.70
11836;DHT22;5977;51.972;7.640;2023-05-02T10:13:06;17.30;60.00
11836;DHT22;5977;51.972;7.640;2023-05-02T10:15:43;17.60;62.30
11836;DHT22;5977;51.972;7.640;2023-05-02T10:18:12;17.50;59.90
11836;DHT22;5977;51.972;7.640;2023-05-02T10:20:43;17.40;60.30
11836;DHT22;5977;51.972;7.640;2023-05-02T10:23:15;17.40;58.70
11836;DHT22;5977;51.972;7.640;2023-05-02T10:25:45;17.20;58.90
11836;DHT22;5977;51.972;7.640;2023-05-02T10:28:13;17.10;60.00
11836;DHT22;5977;51.972;7.640;2023-05-02T10:30:42;16.90;58.80
11836;DHT22;5977;51.972;7.640;2023-05-02T10:33:12;16.90;59.60
11836;DHT22;5977;51.972;7.640;2023-05-02T10:35:43;17.00;60.70
11836;DHT22;5977;51.972;7.640;2023-05-02T10:38:13;17.50;61.30
11836;DHT22;5977;51.972;7.640;2023-05-02T10:40:53;17.70;59.50
11836;DHT22;5977;51.972;7.640;2023-05-02T10:43:24;17.70;57.30
11836;DHT22;5977;51.972;7.640;2023-05-02T10:45:53;17.80;59.10
11836;DHT22;5977;51.972;7.640;2023-05-02T10:48:22;17.70;57.70
11836;DHT22;5977;51.972;7.640;2023-05-02T10:50:52;17.60;58.10
11836;DHT22;5977;51.972;7.640;2023-05-02T10:53:25;17.40;57.60
11836;DHT22;5977;51.972;7.640;2023-05-02T10:56:15;17.40;59.40
11836;DHT22;5977;51.972;7.640;2023-05-02T10:58:43;17.30;58.70
11836;DHT22;5977;51.972;7.640;2023-05-02T11:01:34;17.50;59.00
11836;DHT22;5977;51.972;7.640;2023-05-02T11:04:06;17.50;59.20
11836;DHT22;5977;51.972;7.640;2023-05-02T11:06:36;17.40;58.10
11836;DHT22;5977;51.972;7.640;2023-05-02T11:09:34;17.40;60.40
11836;DHT22;5977;51.972;7.640;2023-05-02T11:12:04;17.40;59.80
11836;DHT22;5977;51.972;7.640;2023-05-02T11:14:48;17.40;59.30
11836;DHT22;5977;51.972;7.640;2023-05-02T11:17:19;17.40;58.10
11836;DHT22;5977;51.972;7.640;2023-05-02T11:23:19;17.70;58.90
11836;DHT22;5977;51.972;7.640;2023-05-02T11:25:54;17.90;58.30
11836;DHT22;5977;51.972;7.640;2023-05-02T11:28:44;17.70;58.30
11836;DHT22;5977;51.972;7.640;2023-05-02T11:34:28;17.70;58.30
11836;DHT22;5977;51.972;7.640;2023-05-02T11:37:10;17.80;57.90
11836;DHT22;5977;51.972;7.640;2023-05-02T11:39:38;17.70;57.50
11836;DHT22;5977;51.972;7.640;2023-05-02T11:42:06;17.40;56.00
11836;DHT22;5977;51.972;7.640;2023-05-02T11:44:56;17.20;56.80
11836;DHT22;5977;51.972;7.640;2023-05-02T11:47:26;17.40;57.40
11836;DHT22;5977;51.972;7.640;2023-05-02T11:49:55;17.30;58.70
11836;DHT22;5977;51.972;7.640;2023-05-02T11:52:23;17.40;58.30
11836;DHT22;5977;51.972;7.640;2023-05-02T11:54:53;17.70;59.80
11836;DHT22;5977;51.972;7.640;2023-05-02T11:57:22;17.90;60.50
11836;DHT22;5977;51.972;7.640;2023-05-02T11:59:50;18.20;57.50
11836;DHT22;5977;51.972;7.640;2023-05-02T12:02:33;18.00;57.40
11836;DHT22;5977;51.972;7.640;2023-05-02T12:05:02;18.10;57.90
11836;DHT22;5977;51.972;7.640;2023-05-02T12:07:35;18.00;57.80
11836;DHT22;5977;51.972;7.640;2023-05-02T12:10:04;17.90;56.00
11836;DHT22;5977;51.972;7.640;2023-05-02T12:12:33;17.60;55.20
11836;DHT22;5977;51.972;7.640;2023-05-02T12:15:02;17.40;57.00
11836;DHT22;5977;51.972;7.640;2023-05-02T12:17:35;17.60;58.50
11836;DHT22;5977;51.972;7.640;2023-05-02T12:20:05;17.60;56.10
11836;DHT22;5977;51.972;7.640;2023-05-02T12:22:33;17.70;58.10
11836;DHT22;5977;51.972;7.640;2023-05-02T12:25:01;17.90;58.00
11836;DHT22;5977;51.972;7.640;2023-05-02T12:27:31;17.50;54.40
11836;DHT22;5977;51.972;7.640;2023-05-02T12:30:00;17.70;57.60
11836;DHT22;5977;51.972;7.640;2023-05-02T12:32:32;17.80;57.60
11836;DHT22;5977;51.972;7.640;2023-05-02T12:35:02;17.80;56.60
11836;DHT22;5977;51.972;7.640;2023-05-02T12:37:30;17.90;58.40
11836;DHT22;5977;51.972;7.640;2023-05-02T12:39:58;17.90;57.90
11836;DHT22;5977;51.972;7.640;2023-05-02T12:42:26;17.70;57.60
11836;DHT22;5977;51.972;7.640;2023-05-02T12:44:54;17.80;58.50
11836;DHT22;5977;51.972;7.640;2023-05-02T12:47:22;17.70;58.40
11836;DHT22;5977;51.972;7.640;2023-05-02T12:49:53;17.60;58.10
11836;DHT22;5977;51.972;7.640;2023-05-02T12:52:45;17.60;58.60
11836;DHT22;5977;51.972;7.640;2023-05-02T12:55:16;17.70;59.10
11836;DHT22;5977;51.972;7.640;2023-05-02T12:57:44;17.70;57.40
11836;DHT22;5977;51.972;7.640;2023-05-02T13:00:15;17.80;58.10
11836;DHT22;5977;51.972;7.640;2023-05-02T13:02:43;17.60;58.10
11836;DHT22;5977;51.972;7.640;2023-05-02T13:05:16;17.60;58.00
11836;DHT22;5977;51.972;7.640;2023-05-02T13:07:44;17.70;58.10
11836;DHT22;5977;51.972;7.640;2023-05-02T13:10:13;17.80;58.10
11836;DHT22;5977;51.972;7.640;2023-05-02T13:12:44;17.80;58.70
11836;DHT22;5977;51.972;7.640;2023-05-02T13:15:13;17.90;58.70
11836;DHT22;5977;51.972;7.640;2023-05-02T13:17:41;18.00;56.90
11836;DHT22;5977;51.972;7.640;2023-05-02T13:20:10;18.00;56.80
11836;DHT22;5977;51.972;7.640;2023-05-02T13:22:40;18.00;57.80
11836;DHT22;5977;51.972;7.640;2023-05-02T13:25:08;17.90;58.30
11836;DHT22;5977;51.972;7.640;2023-05-02T13:27:36;17.80;58.10
11836;DHT22;5977;51.972;7.640;2023-05-02T13:30:04;17.80;58.20
11836;DHT22;5977;51.972;7.640;2023-05-02T13:32:35;17.80;57.80
11836;DHT22;5977;51.972;7.640;2023-05-02T13:35:04;17.60;57.30
11836;DHT22;5977;51.972;7.640;2023-05-02T13:37:32;17.60;58.80
11836;DHT22;5977;51.972;7.640;2023-05-02T13:40:01;17.70;59.40
11836;DHT22;5977;51.972;7.640;2023-05-02T13:42:30;17.40;55.50
11836;DHT22;5977;51.972;7.640;2023-05-02T13:44:58;17.50;57.90
11836;DHT22;5977;51.972;7.640;2023-05-02T13:47:28;17.40;57.50
11836;DHT22;5977;51.972;7.640;2023-05-02T13:49:56;17.50;59.10
11836;DHT22;5977;51.972;7.640;2023-05-02T13:52:24;17.60;58.80
11836;DHT22;5977;51.972;7.640;2023-05-02T13:54:52;17.60;56.50
11836;DHT22;5977;51.972;7.640;2023-05-02T13:57:21;17.70;57.70
11836;DHT22;5977;51.972;7.640;2023-05-02T13:59:49;17.40;55.20
11836;DHT22;5977;51.972;7.640;2023-05-02T14:02:17;17.50;57.90
11836;DHT22;5977;51.972;7.640;2023-05-02T14:04:45;17.60;56.80
11836;DHT22;5977;51.972;7.640;2023-05-02T14:07:12;17.70;57.70
11836;DHT22;5977;51.972;7.640;2023-05-02T14:09:40;17.90;56.40
11836;DHT22;5977;51.972;7.640;2023-05-02T14:12:08;18.00;55.20
11836;DHT22;5977;51.972;7.640;2023-05-02T14:14:37;17.80;54.70
11836;DHT22;5977;51.972;7.640;2023-05-02T14:17:05;17.90;55.50
11836;DHT22;5977;51.972;7.640;2023-05-02T14:19:33;17.90;55.10
11836;DHT22;5977;51.972;7.640;2023-05-02T14:22:01;17.70;53.90
11836;DHT22;5977;51.972;7.640;2023-05-02T14:24:29;17.90;55.30
11836;DHT22;5977;51.972;7.640;2023-05-02T14:26:57;17.80;54.90
11836;DHT22;5977;51.972;7.640;2023-05-02T14:29:25;17.80;55.70
11836;DHT22;5977;51.972;7.640;2023-05-02T14:31:54;17.60;53.50
11836;DHT22;5977;51.972;7.640;2023-05-02T14:34:22;17.60;54.80
11836;DHT22;5977;51.972;7.640;2023-05-02T14:36:52;17.60;55.10
11836;DHT22;5977;51.972;7.640;2023-05-02T14:39:20;17.70;53.60
11836;DHT22;5977;51.972;7.640;2023-05-02T14:41:48;17.80;55.70
11836;DHT22;5977;51.972;7.640;2023-05-02T14:44:15;17.80;54.20
11836;DHT22;5977;51.972;7.640;2023-05-02T14:46:43;17.60;53.50
11836;DHT22;5977;51.972;7.640;2023-05-02T14:49:13;17.50;54.00
11836;DHT22;5977;51.972;7.640;2023-05-02T14:51:41;17.30;53.00
11836;DHT22;5977;51.972;7.640;2023-05-02T14:54:12;17.40;53.90
11836;DHT22;5977;51.972;7.640;2023-05-02T14:56:42;17.30;54.00
11836;DHT22;5977;51.972;7.640;2023-05-02T14:59:10;17.20;52.00
11836;DHT22;5977;51.972;7.640;2023-05-02T15:01:38;17.20;53.20
11836;DHT22;5977;51.972;7.640;2023-05-02T15:04:06;17.20;53.40
11836;DHT22;5977;51.972;7.640;2023-05-02T15:06:36;17.60;53.90
11836;DHT22;5977;51.972;7.640;2023-05-02T15:09:04;17.40;51.70
11836;DHT22;5977;51.972;7.640;2023-05-02T15:11:32;17.40;52.80
11836;DHT22;5977;51.972;7.640;2023-05-02T15:14:00;17.50;52.80
11836;DHT22;5977;51.972;7.640;2023-05-02T15:16:28;17.50;53.30
11836;DHT22;5977;51.972;7.640;2023-05-02T15:18:56;17.60;53.70
11836;DHT22;5977;51.972;7.640;2023-05-02T15:21:24;17.60;52.60
11836;DHT22;5977;51.972;7.640;2023-05-02T15:23:53;17.70;53.50
11836;DHT22;5977;51.972;7.640;2023-05-02T15:26:21;17.80;52.20
11836;DHT22;5977;51.972;7.640;2023-05-02T15:28:49;17.60;53.10
11836;DHT22;5977;51.972;7.640;2023-05-02T15:31:17;17.60;53.40
11836;DHT22;5977;51.972;7.640;2023-05-02T15:33:45;17.70;53.20
11836;DHT22;5977;51.972;7.640;2023-05-02T15:36:13;17.60;52.70
11836;DHT22;5977;51.972;7.640;2023-05-02T15:38:41;17.60;52.60
11836;DHT22;5977;51.972;7.640;2023-05-02T15:41:10;17.60;52.90
11836;DHT22;5977;51.972;7.640;2023-05-02T15:43:38;17.80;55.70
11836;DHT22;5977;51.972;7.640;2023-05-02T15:46:06;17.90;55.00
11836;DHT22;5977;51.972;7.640;2023-05-02T15:48:34;17.80;54.80
11836;DHT22;5977;51.972;7.640;2023-05-02T15:51:02;17.70;53.70
11836;DHT22;5977;51.972;7.640;2023-05-02T15:53:31;17.80;54.90
11836;DHT22;5977;51.972;7.640;2023-05-02T15:56:00;17.70;53.30
11836;DHT22;5977;51.972;7.640;2023-05-02T15:58:29;17.90;54.40
11836;DHT22;5977;51.972;7.640;2023-05-02T16:00:57;17.90;53.10
11836;DHT22;5977;51.972;7.640;2023-05-02T16:03:24;17.60;52.70
11836;DHT22;5977;51.972;7.640;2023-05-02T16:05:53;17.80;53.70
11836;DHT22;5977;51.972;7.640;2023-05-02T16:08:21;17.90;54.10